Time;durP1;ratioP1;P1;durP2;ratioP2;P2;SDS_P1;SDS_P2;PMS_P1;PMS_P2;Temp;Humidity;BMP_temperature;BMP_pressure;BME280_temperature;BME280_humidity;BME280_pressure;Samples;Min_cycle;Max_cycle;Signal;HPM_P1;HPM_P2
2023/02/17 00:01:11;;;;;;;4.87;4.33;;;;;;;13.91;39.34;98285.13;4980451;28;20999;-71
2023/02/17 00:03:36;;;;;;;6.23;5.47;;;;;;;13.89;39.44;98287.91;5000591;28;20411;-71
2023/02/17 00:06:07;;;;;;;7.63;4.70;;;;;;;13.69;40.03;98291.63;4989481;28;20531;-71
2023/02/17 00:08:32;;;;;;;9.33;5.23;;;;;;;13.76;39.71;98287.41;4994597;28;20255;-71
2023/02/17 00:10:58;;;;;;;6.93;4.40;;;;;;;13.70;39.96;98293.28;4999737;28;20424;-71
2023/02/17 00:13:24;;;;;;;12.33;5.10;;;;;;;13.74;39.70;98292.00;4995234;28;20205;-70
2023/02/17 00:15:49;;;;;;;7.30;4.70;;;;;;;13.71;39.83;98300.22;4988578;28;20852;-71
2023/02/17 00:18:15;;;;;;;6.33;4.83;;;;;;;13.70;39.98;98301.19;4988555;28;20213;-71
2023/02/17 00:20:40;;;;;;;7.03;4.60;;;;;;;13.67;40.18;98289.13;4998616;28;20184;-71
2023/02/17 00:23:05;;;;;;;7.27;4.97;;;;;;;13.58;39.78;98285.56;4992228;28;20189;-71
2023/02/17 00:25:31;;;;;;;8.77;4.90;;;;;;;13.61;40.20;98287.06;5004141;28;20208;-71
2023/02/17 00:27:56;;;;;;;9.77;5.00;;;;;;;13.64;40.18;98284.16;4996780;28;20197;-71
2023/02/17 00:30:22;;;;;;;9.07;4.53;;;;;;;13.53;40.71;98282.53;4996593;28;20768;-72
2023/02/17 00:32:47;;;;;;;10.70;4.37;;;;;;;13.57;40.69;98273.38;4992578;28;20704;-71
2023/02/17 00:35:13;;;;;;;7.80;4.80;;;;;;;13.57;40.29;98273.38;4997338;28;20680;-71
2023/02/17 00:37:39;;;;;;;6.97;4.27;;;;;;;13.54;41.11;98283.38;4997906;28;20200;-70
2023/02/17 00:40:05;;;;;;;5.47;4.20;;;;;;;13.57;40.92;98276.00;4988076;28;20204;-71
2023/02/17 00:42:30;;;;;;;7.83;4.43;;;;;;;13.61;40.83;98272.06;4996466;28;21209;-70
2023/02/17 00:44:56;;;;;;;8.83;4.63;;;;;;;13.54;40.97;98278.09;4991245;28;20499;-71
2023/02/17 00:47:21;;;;;;;6.80;4.60;;;;;;;13.52;41.27;98276.44;4991491;28;20201;-71
2023/02/17 00:49:47;;;;;;;5.90;4.00;;;;;;;13.51;41.37;98279.19;4995292;28;20693;-71
2023/02/17 00:52:12;;;;;;;5.33;4.37;;;;;;;13.52;41.37;98280.84;4995545;28;20196;-69
2023/02/17 00:54:39;;;;;;;7.37;4.33;;;;;;;13.58;41.31;98274.19;4996547;28;20177;-70
2023/02/17 00:57:04;;;;;;;6.93;4.33;;;;;;;13.57;41.59;98276.00;4994825;28;20212;-69
2023/02/17 00:59:30;;;;;;;5.87;4.50;;;;;;;13.54;41.63;98278.91;4996509;28;20415;-70
2023/02/17 01:01:55;;;;;;;5.10;3.90;;;;;;;13.45;41.88;98275.34;4994293;28;20272;-70
2023/02/17 01:04:21;;;;;;;6.17;4.10;;;;;;;13.43;42.00;98282.56;5003969;28;20196;-70
2023/02/17 01:06:46;;;;;;;8.33;4.47;;;;;;;13.40;42.11;98280.22;5002731;28;20287;-70
2023/02/17 01:09:13;;;;;;;6.10;4.03;;;;;;;13.30;42.48;98280.22;5001819;28;20255;-70
2023/02/17 01:11:39;;;;;;;8.47;4.57;;;;;;;13.33;42.58;98276.47;5004718;28;20199;-70
2023/02/17 01:14:05;;;;;;;6.97;4.63;;;;;;;13.18;42.62;98279.56;4997169;28;20416;-70
2023/02/17 01:16:34;;;;;;;7.60;4.60;;;;;;;13.15;42.91;98273.75;4997026;28;20169;-70
2023/02/17 01:19:05;;;;;;;9.00;4.20;;;;;;;13.06;43.21;98268.38;4995538;28;20432;-69
2023/02/17 01:21:31;;;;;;;6.97;4.40;;;;;;;13.10;42.79;98270.72;5008259;28;20469;-71
2023/02/17 01:23:59;;;;;;;6.37;4.10;;;;;;;13.13;43.22;98259.91;4993866;28;20426;-70
2023/02/17 01:26:26;;;;;;;10.70;4.83;;;;;;;13.05;43.08;98264.09;5001926;28;20502;-69
2023/02/17 01:28:52;;;;;;;8.70;4.57;;;;;;;13.03;43.09;98255.50;5004376;28;20455;-71
2023/02/17 01:31:19;;;;;;;10.97;4.50;;;;;;;13.09;43.12;98248.81;5007312;28;20424;-70
2023/02/17 01:33:44;;;;;;;9.13;4.57;;;;;;;13.14;42.90;98245.75;5003665;28;20523;-70
2023/02/17 01:36:12;;;;;;;10.53;4.80;;;;;;;13.24;42.83;98249.19;5007889;28;20508;-70
2023/02/17 01:38:38;;;;;;;5.27;3.80;;;;;;;13.20;42.96;98251.28;5001775;28;20201;-70
2023/02/17 01:41:05;;;;;;;4.13;3.73;;;;;;;13.20;43.13;98245.22;5005038;28;20489;-70
2023/02/17 01:43:31;;;;;;;10.43;4.43;;;;;;;13.15;43.23;98243.00;4999207;28;20184;-71
2023/02/17 01:46:01;;;;;;;6.33;4.13;;;;;;;13.13;43.19;98238.84;5005225;28;20466;-70
2023/02/17 01:48:26;;;;;;;8.63;4.50;;;;;;;13.15;43.03;98229.84;5002134;28;20814;-70
2023/02/17 01:50:54;;;;;;;9.77;4.13;;;;;;;13.23;43.16;98236.19;5005168;28;20502;-69
2023/02/17 01:53:25;;;;;;;8.77;4.33;;;;;;;13.27;43.00;98235.75;4987737;28;20581;-70
2023/02/17 01:55:51;;;;;;;6.33;4.20;;;;;;;13.32;42.82;98225.63;4982681;28;21053;-70
2023/02/17 01:58:18;;;;;;;5.63;3.70;;;;;;;13.25;43.13;98227.16;5005907;28;20464;-70
2023/02/17 02:00:44;;;;;;;7.83;4.20;;;;;;;13.22;43.29;98222.22;4985724;28;20431;-70
2023/02/17 02:03:11;;;;;;;5.57;4.60;;;;;;;13.27;43.25;98227.03;4982630;28;20427;-70
2023/02/17 02:05:37;;;;;;;10.33;4.73;;;;;;;13.31;43.37;98228.38;4988414;28;20307;-71
2023/02/17 02:08:03;;;;;;;6.50;4.30;;;;;;;13.36;42.89;98234.06;4998947;28;20459;-70
2023/02/17 02:10:29;;;;;;;8.60;3.83;;;;;;;13.40;42.97;98227.56;5003767;28;20427;-70
2023/02/17 02:12:54;;;;;;;6.60;3.67;;;;;;;13.41;42.88;98216.06;4994735;28;20260;-71
2023/02/17 02:15:22;;;;;;;9.40;3.60;;;;;;;13.37;42.83;98215.47;5007194;28;20184;-71
2023/02/17 02:18:05;;;;;;;9.93;5.20;;;;;;;13.41;42.53;98210.78;4995160;28;20295;-71
2023/02/17 02:20:49;;;;;;;6.57;3.67;;;;;;;13.45;42.49;98212.16;5009155;28;20419;-70
2023/02/17 02:23:32;;;;;;;7.73;3.70;;;;;;;13.40;42.53;98218.81;4995460;28;20424;-70
2023/02/17 02:26:14;;;;;;;8.70;4.20;;;;;;;13.43;42.87;98213.28;5001536;28;21032;-70
2023/02/17 02:29:02;;;;;;;6.10;3.80;;;;;;;13.42;42.63;98217.69;4981840;28;20466;-70
2023/02/17 02:32:19;;;;;;;12.50;4.10;;;;;;;13.40;42.41;98216.19;4975111;28;20420;-70
2023/02/17 02:34:47;;;;;;;7.60;3.90;;;;;;;13.34;42.52;98221.03;4956445;28;20426;-70
2023/02/17 02:37:35;;;;;;;6.20;3.80;;;;;;;13.25;42.91;98211.38;4981729;28;20444;-69
2023/02/17 02:40:05;;;;;;;7.70;4.10;;;;;;;13.26;42.96;98212.22;4986788;28;20924;-71
2023/02/17 02:42:31;;;;;;;4.90;3.50;;;;;;;13.34;42.83;98207.88;4995752;28;20424;-70
2023/02/17 02:44:57;;;;;;;7.10;3.83;;;;;;;13.35;42.54;98206.91;4987641;28;20500;-70
2023/02/17 02:47:40;;;;;;;6.73;4.00;;;;;;;13.45;42.53;98208.69;5000552;28;20468;-70
2023/02/17 02:50:06;;;;;;;5.47;3.43;;;;;;;13.45;41.91;98203.44;5006725;28;20211;-70
2023/02/17 02:52:42;;;;;;;8.33;4.27;;;;;;;13.47;41.83;98196.22;4988736;28;20502;-70
2023/02/17 02:55:14;;;;;;;8.53;3.90;;;;;;;13.46;42.20;98203.28;4999780;28;20419;-69
2023/02/17 02:57:46;;;;;;;4.37;3.50;;;;;;;13.46;41.85;98191.91;4987473;28;20554;-70
2023/02/17 03:00:32;;;;;;;7.23;3.10;;;;;;;13.44;41.78;98196.50;4983794;28;20431;-70
2023/02/17 03:02:58;;;;;;;5.60;3.67;;;;;;;13.43;41.66;98186.94;4983667;28;20415;-69
2023/02/17 03:05:29;;;;;;;6.10;3.60;;;;;;;13.47;42.16;98183.88;4985211;28;20530;-70
2023/02/17 03:08:00;;;;;;;7.73;3.97;;;;;;;13.50;41.70;98177.47;5000129;28;20432;-70
2023/02/17 03:10:25;;;;;;;6.00;3.50;;;;;;;13.48;41.74;98180.25;4984457;28;20434;-70
2023/02/17 03:12:51;;;;;;;9.70;4.33;;;;;;;13.48;42.08;98179.44;4982481;28;20487;-71
2023/02/17 03:15:28;;;;;;;5.70;3.40;;;;;;;13.51;41.93;98168.59;5004918;28;20681;-71
2023/02/17 03:18:00;;;;;;;6.17;3.43;;;;;;;13.41;42.11;98167.81;4973268;28;20266;-72
2023/02/17 03:20:32;;;;;;;5.90;3.73;;;;;;;13.39;42.39;98167.09;5004090;28;20416;-70
2023/02/17 03:22:58;;;;;;;9.07;4.03;;;;;;;13.43;42.11;98161.41;4983525;28;20407;-70
2023/02/17 03:25:23;;;;;;;5.37;3.53;;;;;;;13.43;42.41;98160.59;4974857;28;20898;-70
2023/02/17 03:27:49;;;;;;;8.03;4.00;;;;;;;13.36;42.50;98158.50;5002288;28;20779;-70
2023/02/17 03:30:14;;;;;;;8.37;3.53;;;;;;;13.36;42.30;98155.88;5000345;28;20208;-70
2023/02/17 03:32:40;;;;;;;6.07;3.37;;;;;;;13.40;42.47;98163.53;5005328;28;20189;-70
2023/02/17 03:35:06;;;;;;;6.40;3.60;;;;;;;13.42;42.22;98172.13;5000753;28;20189;-70
2023/02/17 03:37:31;;;;;;;7.47;4.20;;;;;;;13.40;42.62;98168.78;4983830;28;20200;-70
2023/02/17 03:39:57;;;;;;;8.33;3.90;;;;;;;13.31;42.75;98186.25;5004678;28;20176;-70
2023/02/17 03:42:22;;;;;;;8.80;4.40;;;;;;;13.29;42.73;98175.88;4984879;28;20271;-70
2023/02/17 03:44:48;;;;;;;5.97;3.87;;;;;;;13.34;42.67;98173.66;5006841;28;20251;-70
2023/02/17 03:47:13;;;;;;;5.97;3.70;;;;;;;13.28;42.98;98174.22;4998940;28;20223;-71
2023/02/17 03:49:39;;;;;;;6.77;3.90;;;;;;;13.27;43.30;98187.53;4991022;28;20267;-70
2023/02/17 03:52:04;;;;;;;10.27;4.47;;;;;;;13.30;43.04;98187.22;5001174;28;20239;-70
2023/02/17 03:54:30;;;;;;;6.10;3.90;;;;;;;13.29;42.98;98170.63;5000435;28;20543;-70
2023/02/17 03:56:55;;;;;;;10.80;3.83;;;;;;;13.29;43.03;98175.88;5003713;28;20287;-70
2023/02/17 03:59:20;;;;;;;8.73;3.90;;;;;;;13.27;42.75;98180.47;4999425;28;20181;-70
2023/02/17 04:01:46;;;;;;;10.53;4.23;;;;;;;13.28;42.83;98184.75;4992183;28;20195;-70
2023/02/17 04:04:11;;;;;;;9.63;3.70;;;;;;;13.27;42.57;98183.09;4999795;28;20281;-72
2023/02/17 04:06:37;;;;;;;5.90;3.50;;;;;;;13.27;42.75;98177.84;5007974;28;20192;-70
2023/02/17 04:09:02;;;;;;;7.93;4.27;;;;;;;13.20;42.59;98187.28;5001178;28;20312;-69
2023/02/17 04:11:28;;;;;;;6.47;3.87;;;;;;;13.25;42.72;98179.78;5000401;28;20215;-70
2023/02/17 04:13:53;;;;;;;7.87;4.10;;;;;;;13.32;42.66;98180.88;4998151;28;20263;-70
2023/02/17 04:16:19;;;;;;;7.40;3.87;;;;;;;13.35;42.66;98185.00;4999750;28;20271;-70
2023/02/17 04:18:44;;;;;;;11.93;4.00;;;;;;;13.36;42.47;98191.94;5000803;28;20822;-70
2023/02/17 04:21:09;;;;;;;5.40;3.90;;;;;;;13.36;42.57;98191.94;4999962;28;20558;-70
2023/02/17 04:23:35;;;;;;;5.83;4.10;;;;;;;13.41;42.66;98194.16;5009722;28;20263;-71
2023/02/17 04:26:03;;;;;;;10.40;4.20;;;;;;;13.40;42.49;98197.75;5005454;28;20228;-71
2023/02/17 04:28:28;;;;;;;8.23;3.90;;;;;;;13.33;42.96;98202.75;4984906;28;20459;-69
2023/02/17 04:30:56;;;;;;;5.40;3.60;;;;;;;13.28;42.58;98203.19;5001113;28;20793;-70
2023/02/17 04:33:22;;;;;;;6.17;4.20;;;;;;;13.24;42.82;98196.53;5005627;28;20176;-69
2023/02/17 04:35:47;;;;;;;6.03;3.93;;;;;;;13.29;43.03;98196.94;4989186;28;20433;-69
2023/02/17 04:38:13;;;;;;;10.60;4.60;;;;;;;13.28;43.07;98186.56;4977630;28;20204;-69
2023/02/17 04:40:38;;;;;;;4.70;3.67;;;;;;;13.31;43.22;98186.25;5000950;28;20257;-71
2023/02/17 04:43:04;;;;;;;8.80;4.30;;;;;;;13.30;43.44;98181.97;4995042;28;20188;-71
2023/02/17 04:45:29;;;;;;;5.97;3.80;;;;;;;13.35;43.25;98185.84;5003550;28;20251;-71
2023/02/17 04:47:54;;;;;;;6.87;4.03;;;;;;;13.05;43.85;98177.22;4992720;28;20215;-69
2023/02/17 04:50:20;;;;;;;10.40;4.20;;;;;;;13.13;43.83;98170.41;5004473;28;20182;-69
2023/02/17 04:52:45;;;;;;;5.33;4.50;;;;;;;13.14;44.31;98169.44;4997499;28;20185;-70
2023/02/17 04:55:11;;;;;;;9.97;4.00;;;;;;;13.14;44.00;98162.38;4994795;28;20184;-70
2023/02/17 04:57:36;;;;;;;5.33;3.70;;;;;;;13.02;44.86;98164.34;4983084;28;20620;-70
2023/02/17 05:00:04;;;;;;;7.43;4.10;;;;;;;13.03;44.63;98163.38;5000374;28;20188;-70
2023/02/17 05:02:29;;;;;;;7.33;4.17;;;;;;;12.87;45.46;98166.63;4999675;28;20184;-70
2023/02/17 05:04:55;;;;;;;6.20;3.67;;;;;;;12.88;45.38;98162.19;4988631;28;20833;-71
2023/02/17 05:07:20;;;;;;;6.47;3.80;;;;;;;13.09;44.88;98153.28;4996054;28;20219;-72
2023/02/17 05:09:46;;;;;;;5.70;3.73;;;;;;;13.11;45.01;98153.94;4997235;28;20177;-70
2023/02/17 05:12:12;;;;;;;7.53;4.07;;;;;;;13.12;45.05;98152.97;4995044;28;20185;-70
2023/02/17 05:14:38;;;;;;;5.90;3.70;;;;;;;13.12;45.50;98158.22;5000799;28;20612;-70
2023/02/17 05:17:03;;;;;;;6.43;3.70;;;;;;;13.11;45.19;98156.56;4999307;28;20654;-70
2023/02/17 05:19:29;;;;;;;7.37;3.40;;;;;;;12.75;46.59;98173.84;5000341;28;20449;-70
2023/02/17 05:21:54;;;;;;;6.40;3.90;;;;;;;13.07;46.30;98169.19;4987133;28;20227;-70
2023/02/17 05:24:20;;;;;;;6.57;4.07;;;;;;;13.09;46.40;98161.97;4994107;28;20256;-71
2023/02/17 05:26:45;;;;;;;4.93;3.57;;;;;;;13.15;46.48;98160.56;5000773;28;20201;-70
2023/02/17 05:29:10;;;;;;;6.00;3.80;;;;;;;13.26;46.25;98156.94;5006934;28;20263;-70
2023/02/17 05:31:36;;;;;;;6.97;4.03;;;;;;;13.14;46.69;98149.22;5003927;28;20264;-70
2023/02/17 05:34:02;;;;;;;9.50;4.53;;;;;;;13.28;46.50;98163.69;5001250;28;20180;-70
2023/02/17 05:36:27;;;;;;;7.60;4.27;;;;;;;13.25;47.08;98157.91;5002285;28;20295;-70
2023/02/17 05:38:53;;;;;;;7.73;4.20;;;;;;;13.27;46.65;98162.03;5001638;28;20200;-70
2023/02/17 05:41:18;;;;;;;7.00;4.20;;;;;;;13.29;47.01;98159.28;5000393;28;20279;-70
2023/02/17 05:43:44;;;;;;;7.97;4.70;;;;;;;13.25;47.36;98153.44;5008646;28;20180;-69
2023/02/17 05:46:10;;;;;;;9.40;4.77;;;;;;;13.29;47.35;98165.34;5007924;28;20247;-69
2023/02/17 05:48:35;;;;;;;6.00;4.33;;;;;;;13.32;47.51;98169.50;5003320;28;20443;-71
2023/02/17 05:51:02;;;;;;;9.37;4.80;;;;;;;13.34;47.55;98165.75;4999852;28;20176;-69
2023/02/17 05:53:27;;;;;;;10.20;4.73;;;;;;;13.30;47.70;98177.53;4969285;28;20622;-70
2023/02/17 05:55:53;;;;;;;8.23;4.10;;;;;;;13.29;48.06;98181.16;4986341;28;20474;-69
2023/02/17 05:58:18;;;;;;;5.53;3.90;;;;;;;13.40;47.79;98180.16;5000686;28;20715;-69
2023/02/17 06:00:44;;;;;;;7.23;3.90;;;;;;;13.49;47.71;98183.69;4981413;28;20181;-71
2023/02/17 06:03:10;;;;;;;7.27;3.90;;;;;;;13.44;48.14;98189.41;5003682;28;20181;-70
2023/02/17 06:05:36;;;;;;;12.03;4.30;;;;;;;13.29;48.40;98186.41;5003648;28;20789;-70
2023/02/17 06:08:01;;;;;;;10.87;4.67;;;;;;;13.42;48.24;98190.53;4982260;28;20208;-70
2023/02/17 06:10:27;;;;;;;5.33;3.53;;;;;;;13.38;48.30;98187.34;4999928;28;20272;-70
2023/02/17 06:12:52;;;;;;;6.13;4.47;;;;;;;13.49;48.17;98196.88;4985527;28;20751;-70
2023/02/17 06:15:18;;;;;;;9.60;4.47;;;;;;;13.44;48.29;98199.94;4994170;28;20213;-70
2023/02/17 06:17:43;;;;;;;7.10;4.47;;;;;;;13.43;48.31;98192.22;5002008;28;20212;-70
2023/02/17 06:20:10;;;;;;;7.97;6.03;;;;;;;13.40;48.46;98195.13;5006054;28;20265;-70
2023/02/17 06:22:35;;;;;;;9.60;5.17;;;;;;;13.49;48.39;98200.34;5003057;28;20470;-69
2023/02/17 06:25:01;;;;;;;8.63;5.10;;;;;;;13.47;48.21;98201.47;5001974;28;20430;-70
2023/02/17 06:27:26;;;;;;;5.43;4.27;;;;;;;13.46;48.58;98198.00;5003927;28;20342;-70
2023/02/17 06:29:51;;;;;;;7.23;4.43;;;;;;;13.52;48.42;98202.69;4988470;28;20248;-70
2023/02/17 06:32:17;;;;;;;9.53;4.30;;;;;;;13.55;48.61;98213.88;5006431;28;20211;-70
2023/02/17 06:34:42;;;;;;;12.03;4.63;;;;;;;13.52;48.23;98212.38;5005347;28;20176;-70
2023/02/17 06:37:08;;;;;;;8.47;3.97;;;;;;;13.48;48.79;98216.31;4985370;28;20193;-68
2023/02/17 06:39:33;;;;;;;6.43;3.80;;;;;;;13.49;48.76;98220.56;5003934;28;20181;-70
2023/02/17 06:41:59;;;;;;;8.10;4.73;;;;;;;13.36;49.23;98215.63;4995587;28;20195;-70
2023/02/17 06:44:24;;;;;;;8.83;5.00;;;;;;;13.45;49.08;98217.41;4994966;28;20219;-70
2023/02/17 06:46:50;;;;;;;7.87;4.43;;;;;;;13.48;48.78;98218.94;4995018;28;20570;-70
2023/02/17 06:49:15;;;;;;;7.00;4.33;;;;;;;13.53;48.93;98208.78;5002916;28;20556;-70
2023/02/17 06:51:41;;;;;;;5.30;4.20;;;;;;;13.48;49.12;98211.84;4999855;28;20184;-70
2023/02/17 06:54:06;;;;;;;9.90;4.77;;;;;;;13.52;49.05;98204.50;4996855;28;20184;-70
2023/02/17 06:56:32;;;;;;;6.40;4.00;;;;;;;13.59;48.94;98210.00;4998917;28;20184;-70
2023/02/17 06:58:57;;;;;;;9.00;4.50;;;;;;;13.50;49.29;98212.53;4998225;28;20435;-70
2023/02/17 07:01:25;;;;;;;9.03;3.90;;;;;;;13.50;49.11;98219.59;4997985;28;20181;-70
2023/02/17 07:03:53;;;;;;;6.13;3.87;;;;;;;13.48;49.39;98222.38;4990887;28;20210;-70
2023/02/17 07:06:19;;;;;;;8.27;4.30;;;;;;;13.56;49.31;98226.09;4991062;28;20539;-70
2023/02/17 07:08:44;;;;;;;7.30;4.40;;;;;;;13.36;49.87;98237.50;4990493;28;20531;-69
2023/02/17 07:11:11;;;;;;;7.50;4.07;;;;;;;13.47;49.46;98225.19;4991019;28;20267;-69
2023/02/17 07:13:37;;;;;;;5.93;3.90;;;;;;;13.52;49.37;98233.47;4990440;28;20179;-69
2023/02/17 07:16:03;;;;;;;3.93;3.43;;;;;;;13.51;49.58;98235.28;4990953;28;20409;-69
2023/02/17 07:18:29;;;;;;;5.70;4.57;;;;;;;13.54;49.29;98244.69;4990190;28;20636;-69
2023/02/17 07:20:54;;;;;;;8.30;4.13;;;;;;;13.44;49.63;98241.25;4990142;28;20204;-70
2023/02/17 07:23:20;;;;;;;4.97;3.60;;;;;;;13.21;50.36;98244.22;4990496;28;20185;-70
2023/02/17 07:25:45;;;;;;;8.23;4.03;;;;;;;13.45;49.69;98240.28;4990733;28;20220;-70
2023/02/17 07:28:11;;;;;;;7.37;3.83;;;;;;;13.47;49.91;98247.06;4994457;28;20197;-70
2023/02/17 07:30:40;;;;;;;8.77;4.33;;;;;;;13.49;49.82;98249.53;4994149;28;20184;-71
2023/02/17 07:33:06;;;;;;;8.73;4.10;;;;;;;13.52;49.76;98250.09;4997333;28;20189;-71
2023/02/17 07:35:32;;;;;;;4.93;3.70;;;;;;;13.54;49.94;98254.41;4973263;28;20434;-70
2023/02/17 07:37:57;;;;;;;6.30;3.20;;;;;;;13.41;50.33;98252.06;5000498;28;20439;-71
2023/02/17 07:40:23;;;;;;;5.90;3.80;;;;;;;13.45;50.19;98256.91;4979654;28;20189;-70
2023/02/17 07:42:49;;;;;;;5.00;3.37;;;;;;;13.51;50.36;98251.06;4994973;28;20173;-71
2023/02/17 07:45:14;;;;;;;5.23;3.40;;;;;;;13.41;50.81;98247.66;4994197;28;20428;-70
2023/02/17 07:47:40;;;;;;;6.90;3.80;;;;;;;13.47;50.63;98240.97;5001917;28;20236;-70
2023/02/17 07:50:06;;;;;;;6.97;3.93;;;;;;;13.60;50.56;98251.16;4997964;28;20268;-70
2023/02/17 07:52:31;;;;;;;4.83;3.30;;;;;;;13.62;50.72;98254.50;4999519;28;20185;-71
2023/02/17 07:54:57;;;;;;;8.63;3.27;;;;;;;13.53;51.19;98269.34;4995018;28;20502;-71
2023/02/17 07:57:22;;;;;;;6.07;3.50;;;;;;;13.32;51.92;98257.22;5000645;28;20224;-71
2023/02/17 07:59:48;;;;;;;6.53;3.10;;;;;;;13.60;50.65;98259.06;5001430;28;20174;-71
2023/02/17 08:02:13;;;;;;;4.50;3.03;;;;;;;13.71;50.64;98263.31;4991291;28;20245;-71
2023/02/17 08:04:38;;;;;;;4.37;2.97;;;;;;;13.78;50.64;98259.13;4994878;28;20177;-71
2023/02/17 08:07:04;;;;;;;7.57;3.20;;;;;;;13.83;50.64;98268.25;5001072;28;20217;-72
2023/02/17 08:15:00;;;;;;;8.53;3.67;;;;;;;13.74;51.25;98271.75;4992852;28;20435;-71
2023/02/17 08:17:26;;;;;;;4.33;3.50;;;;;;;13.78;51.48;98243.31;4998037;28;20529;-71
2023/02/17 08:19:52;;;;;;;3.47;3.13;;;;;;;13.63;52.19;98254.34;5004088;28;20420;-71
2023/02/17 08:22:17;;;;;;;5.90;2.90;;;;;;;13.68;52.20;98243.34;4999230;28;20524;-70
2023/02/17 08:24:43;;;;;;;5.03;3.20;;;;;;;13.80;51.86;98251.91;4994038;28;20189;-71
2023/02/17 08:27:08;;;;;;;5.07;2.53;;;;;;;14.09;51.45;98262.25;4997997;28;20200;-70
2023/02/17 08:29:33;;;;;;;5.37;3.53;;;;;;;14.48;50.77;98250.63;5003351;28;20177;-71
2023/02/17 08:31:59;;;;;;;5.37;2.93;;;;;;;14.77;50.00;98256.63;5004098;28;20204;-71
2023/02/17 08:34:24;;;;;;;4.27;3.10;;;;;;;14.88;49.59;98253.75;5001210;28;20268;-71
2023/02/17 08:36:50;;;;;;;3.57;3.10;;;;;;;14.81;49.66;98255.31;4997227;28;20209;-72
2023/02/17 08:39:17;;;;;;;6.23;3.30;;;;;;;14.51;50.45;98258.19;5002396;28;20184;-71
2023/02/17 08:41:43;;;;;;;3.97;3.20;;;;;;;14.76;50.02;98258.44;4992878;28;20691;-71
2023/02/17 08:44:14;;;;;;;8.67;3.10;;;;;;;14.74;50.01;98245.41;4998012;28;20423;-70
2023/02/17 08:46:40;;;;;;;13.30;2.53;;;;;;;14.71;50.29;98256.25;4996351;28;20629;-70
2023/02/17 08:49:06;;;;;;;6.00;3.23;;;;;;;14.77;50.37;98251.34;4995928;28;20485;-71
2023/02/17 08:51:32;;;;;;;5.30;2.97;;;;;;;14.85;50.22;98252.25;4994000;28;20898;-72
2023/02/17 08:53:59;;;;;;;6.53;2.80;;;;;;;14.77;50.43;98244.25;4990647;28;20189;-72
2023/02/17 08:56:25;;;;;;;10.80;3.37;;;;;;;14.61;51.04;98244.94;4999868;28;20417;-69
2023/02/17 08:58:51;;;;;;;3.53;2.77;;;;;;;14.64;50.93;98244.63;4995938;28;20452;-71
2023/02/17 09:01:21;;;;;;;5.20;2.67;;;;;;;14.70;51.00;98237.94;4992348;28;20547;-71
2023/02/17 09:03:48;;;;;;;4.67;2.83;;;;;;;14.75;50.96;98240.94;4990696;28;20224;-71
2023/02/17 09:06:14;;;;;;;3.47;2.70;;;;;;;14.67;51.24;98244.38;5000306;28;20451;-71
2023/02/17 09:08:40;;;;;;;4.63;3.20;;;;;;;14.36;52.16;98250.00;4993585;28;20439;-70
2023/02/17 09:11:06;;;;;;;4.40;2.63;;;;;;;14.54;51.61;98250.00;4992821;28;20907;-71
2023/02/17 09:13:32;;;;;;;3.10;2.60;;;;;;;14.50;51.89;98234.63;4980421;28;20415;-71
2023/02/17 09:15:57;;;;;;;6.17;2.80;;;;;;;14.25;52.68;98235.22;4995299;28;20431;-71
2023/02/17 09:18:24;;;;;;;4.17;3.00;;;;;;;14.33;52.45;98244.19;5004072;28;20209;-71
2023/02/17 09:20:49;;;;;;;5.90;2.90;;;;;;;14.18;52.79;98239.44;4980556;28;20272;-70
2023/02/17 09:23:15;;;;;;;5.10;3.00;;;;;;;14.28;52.67;98242.84;5002331;28;20507;-71
2023/02/17 09:25:41;;;;;;;4.20;3.03;;;;;;;14.13;53.38;98241.69;5002123;28;20184;-71
2023/02/17 09:28:06;;;;;;;4.23;3.03;;;;;;;13.95;53.78;98250.44;4998053;28;20583;-71
2023/02/17 09:30:32;;;;;;;2.77;2.57;;;;;;;14.18;53.36;98252.63;4990060;28;20180;-69
2023/02/17 09:32:57;;;;;;;4.37;2.90;;;;;;;14.25;53.35;98244.94;4989189;28;20225;-71
2023/02/17 09:35:23;;;;;;;3.10;2.23;;;;;;;14.39;52.87;98240.94;5004302;28;20196;-70
2023/02/17 09:37:49;;;;;;;6.03;3.17;;;;;;;14.36;53.05;98231.53;4996969;28;20201;-72
2023/02/17 09:40:18;;;;;;;4.53;3.20;;;;;;;14.46;52.89;98242.00;4999087;28;20185;-71
2023/02/17 09:42:43;;;;;;;3.60;3.03;;;;;;;14.52;52.73;98227.38;4980886;28;20651;-72
2023/02/17 09:45:11;;;;;;;2.73;2.37;;;;;;;14.65;52.61;98229.63;4985038;28;20433;-71
2023/02/17 09:47:41;;;;;;;4.30;2.80;;;;;;;14.59;52.85;98254.81;4997248;28;20338;-71
2023/02/17 09:50:11;;;;;;;3.80;2.80;;;;;;;14.43;53.29;98268.69;4985254;28;20460;-71
2023/02/17 09:52:47;;;;;;;2.80;2.30;;;;;;;14.66;52.76;98287.53;4976093;28;20486;-72
2023/02/17 09:55:20;;;;;;;7.23;3.07;;;;;;;14.70;52.92;98290.72;4977900;28;20503;-71
2023/02/17 09:57:56;;;;;;;2.73;2.50;;;;;;;14.75;52.78;98285.78;4979478;28;20436;-71
2023/02/17 10:00:29;;;;;;;2.80;2.40;;;;;;;14.83;52.71;98288.50;4980670;28;20428;-71
2023/02/17 10:03:03;;;;;;;3.83;2.43;;;;;;;15.24;52.30;98279.22;4974581;28;20903;-71
2023/02/17 10:05:37;;;;;;;3.23;2.70;;;;;;;15.64;51.42;98275.13;5002664;28;20412;-71
2023/02/17 10:08:15;;;;;;;4.57;3.03;;;;;;;16.25;50.08;98286.44;4989728;28;20471;-71
2023/02/17 10:10:50;;;;;;;4.17;2.30;;;;;;;16.83;48.22;98288.28;4980232;28;20455;-70
2023/02/17 10:13:17;;;;;;;2.67;2.27;;;;;;;17.20;47.39;98306.31;4983162;28;20432;-71
2023/02/17 10:15:47;;;;;;;1.97;1.77;;;;;;;17.24;46.57;98304.19;4984356;28;20508;-71
2023/02/17 10:18:31;;;;;;;4.10;2.50;;;;;;;16.81;47.75;98293.78;4987196;28;20459;-71
2023/02/17 10:21:01;;;;;;;4.90;2.00;;;;;;;16.80;47.49;98291.28;4979835;28;20468;-71
2023/02/17 10:23:27;;;;;;;4.90;2.83;;;;;;;16.67;47.88;98294.41;4984495;28;20426;-71
2023/02/17 10:26:24;;;;;;;6.13;2.50;;;;;;;16.25;49.06;98291.72;4960179;28;20948;-71
2023/02/17 10:28:58;;;;;;;3.63;2.43;;;;;;;16.33;49.15;98293.56;4991780;28;20983;-70
2023/02/17 10:31:45;;;;;;;7.30;2.17;;;;;;;16.32;49.38;98291.91;4975827;28;20420;-72
2023/02/17 10:34:21;;;;;;;2.57;2.20;;;;;;;16.52;48.80;98281.00;4992633;28;20431;-71
2023/02/17 10:37:03;;;;;;;3.10;1.87;;;;;;;16.72;48.60;98285.00;4990558;28;20408;-70
2023/02/17 10:39:35;;;;;;;3.77;2.30;;;;;;;16.87;48.22;98289.63;4992870;28;20427;-71
2023/02/17 10:42:01;;;;;;;3.40;2.10;;;;;;;17.04;47.82;98291.28;4991793;28;20418;-71
2023/02/17 10:44:27;;;;;;;3.60;2.00;;;;;;;17.22;47.50;98277.03;4976313;28;21349;-72
2023/02/17 10:46:53;;;;;;;8.10;2.40;;;;;;;17.35;47.55;98274.69;4994259;28;20460;-71
2023/02/17 10:49:27;;;;;;;2.63;2.23;;;;;;;17.09;47.70;98280.19;4986982;28;20212;-71
2023/02/17 10:51:53;;;;;;;2.30;1.90;;;;;;;16.67;48.64;98273.25;4998754;28;20462;-70
2023/02/17 10:54:36;;;;;;;1.70;1.60;;;;;;;16.80;48.28;98281.53;4975101;28;20519;-70
2023/02/17 10:57:04;;;;;;;2.23;2.03;;;;;;;16.88;48.03;98264.81;4982269;28;20192;-69
2023/02/17 10:59:38;;;;;;;5.90;2.13;;;;;;;17.01;47.97;98267.78;4978408;28;20423;-71
2023/02/17 11:02:14;;;;;;;3.47;2.03;;;;;;;17.02;48.04;98264.13;4981187;28;20420;-70
2023/02/17 11:04:41;;;;;;;4.30;2.13;;;;;;;16.97;48.08;98263.84;4990632;28;20435;-70
2023/02/17 11:07:11;;;;;;;3.70;1.80;;;;;;;17.19;47.61;98277.34;4994461;28;20464;-69
2023/02/17 11:09:39;;;;;;;2.87;1.50;;;;;;;16.97;48.19;98263.00;4978921;28;20500;-69
2023/02/17 11:12:27;;;;;;;2.00;1.50;;;;;;;16.93;48.65;98261.66;4979222;28;20510;-72
2023/02/17 11:14:53;;;;;;;2.77;1.30;;;;;;;16.94;48.26;98260.66;4992809;28;20764;-69
2023/02/17 11:17:29;;;;;;;4.30;1.40;;;;;;;17.00;48.30;98273.25;4973615;28;20543;-70
2023/02/17 11:20:03;;;;;;;2.40;1.50;;;;;;;17.26;47.97;98257.16;4998804;28;20779;-71
2023/02/17 11:22:43;;;;;;;2.27;1.40;;;;;;;17.14;48.46;98258.47;4995457;28;20416;-71
2023/02/17 11:25:27;;;;;;;3.83;1.70;;;;;;;17.16;48.31;98251.19;4978455;28;20432;-72
2023/02/17 11:27:57;;;;;;;1.90;1.40;;;;;;;17.30;48.06;98255.81;5002053;28;20554;-70
2023/02/17 11:30:23;;;;;;;1.50;1.10;;;;;;;17.26;48.19;98246.56;5001874;28;20424;-72
2023/02/17 11:32:49;;;;;;;2.33;1.27;;;;;;;17.31;48.39;98254.81;5006936;28;20489;-71
2023/02/17 11:35:36;;;;;;;2.27;1.43;;;;;;;17.33;48.18;98228.97;5001569;28;20421;-70
2023/02/17 11:38:13;;;;;;;3.70;1.60;;;;;;;16.88;49.16;98243.63;4999606;28;20617;-71
2023/02/17 11:40:41;;;;;;;4.40;1.40;;;;;;;17.12;48.83;98228.72;4990709;28;20985;-71